Glendale Luke AFB, Arizona
Current Conditions -  °F | °C
As of 5:58 PM on Friday 19 Dec 2014 (Local Time) from KLUF Reporting Station
Clear Clear  
Wind Chill: 57°   Ceiling: Unl
Heat Index: 57°   Visibility: 10mi
Dew Point: 42°   Wind: 0mph
Humidity: 57%   Direction: NA
Pressure: 30.12"   Gusts: NA
Location:  33.5402°N, 112.349°W
Report Text: KLUF 200058Z AUTO 00000KT 10SM CLR 14/05 A3012 RMK AO2 SLP200 T01380054 $
Loading
Personal Weather Stations






























Interactive Weather Map New forecast layout! Learn more

10-Day Weather Forecast

Advertisements
Track Severe Weather on mobile